• Join FlightAware (Why Join?)
  • Login
  • US Flag 
Gobble Gobble! 
03:24AM EST


 

Airport Tracker/Info


-or-


 

Live Flight TrackerFlight Track Log ✈ AFR3989 ✈ 26-Oct-2013 ✈ MTPP / PAP - TFFR / PTP

Flight Track Log - Related Links

Times and Time Zones

All times are in EDT time to prevent confusion due to time zone crossing. See the AFR3989 flight status page for this flight to view local times or setup timezone preferences in your user account.

Time Position Orientation Groundspeed Altitude Reporting Facility
EDT Latitude Longitude Course Direction KTS MPH feet Rate Location/Type
01:28PM 18.4758 -71.0356 95° East  Level FlightAware Approximate
01:29PM 18.4661 -70.9240 95° East  Level FlightAware Approximate
01:30PM 18.4564 -70.8123 95° East  Level FlightAware Approximate
01:31PM 18.4466 -70.7007 95° East  Level FlightAware Approximate
01:32PM 18.4368 -70.5891 95° East  Level FlightAware Approximate
01:33PM 18.4268 -70.4775 95° East  Level FlightAware Approximate
01:34PM 18.4168 -70.3659 95° East  Level FlightAware Approximate
01:35PM 18.4068 -70.2543 95° East  Level FlightAware Approximate
01:36PM 18.3966 -70.1428 95° East  Level FlightAware Approximate
01:37PM 18.3864 -70.0312 95° East  Level FlightAware Approximate
01:38PM 18.3762 -69.9197 96° East  Level FlightAware Approximate
01:39PM 18.3662 -69.8120 96° East  Level FlightAware Approximate
01:40PM 18.3561 -69.7046 96° East  Level FlightAware Approximate
01:41PM 18.3459 -69.5972 96° East  Level FlightAware Approximate
01:41PM 18.4350 -71.1610 96° East 407 468 22,500  Level FlightAware
01:42PM 18.3357 -69.4898 96° East  Level FlightAware Approximate
01:42PM 18.4290 -71.0660 94° East 412 474 23,600  Level FlightAware
01:43PM 18.4220 -70.9400 93° East 418 481 24,400 420 Climbing FlightAware
01:44PM 18.4190 -70.8780 93° East 418 481 24,400 1,620 Level FlightAware
01:44PM 18.4120 -70.7890 95° East 429 494 26,300 1,920 Climbing FlightAware
01:45PM 18.4040 -70.6730 94° East 436 502 27,300 1,200 Climbing FlightAware
01:46PM 18.3990 -70.5890 94° East 435 501 28,200 1,140 Climbing FlightAware
01:46PM 18.3950 -70.5310 94° East 440 506 28,600 900 Climbing FlightAware
01:47PM 18.3890 -70.4260 93° East 444 511 29,400 1,020 Climbing FlightAware
01:48PM 18.3830 -70.3310 94° East 445 512 30,200 1,140 Climbing FlightAware
01:48PM 18.3780 -70.2620 94° East 441 507 30,900 1,200 Climbing FlightAware
01:49PM 18.3730 -70.1820 94° East 440 506 31,600 1,080 Climbing FlightAware
01:50PM 18.3680 -70.1020 94° East 437 503 32,300 1,200 Climbing FlightAware
01:50PM 18.3630 -70.0360 95° East 435 501 33,000 1,260 Climbing FlightAware
01:51PM 18.3570 -69.9470 94° East 428 493 33,900 960 Climbing FlightAware
01:51PM 18.3510 -69.8590 94° East 430 495 34,400 720 Climbing FlightAware
01:52PM 18.3450 -69.7610 94° East 432 497 35,000 360 Climbing FlightAware
01:53PM 18.3390 -69.6750 94° East 445 512 35,000  Level FlightAware
01:54PM 18.3340 -69.5990 94° East 449 517 35,000  Level FlightAware
01:54PM 18.3290 -69.5350 95° East 448 516 35,000  Level FlightAware
01:55PM 18.3240 -69.4580 94° East 447 514 35,000  Level FlightAware
01:55PM 18.3180 -69.3750 94° East 446 513 35,000  Level FlightAware
01:56PM 18.3120 -69.2870 94° East 443 510 35,000  Level FlightAware
01:57PM 18.3060 -69.2080 95° East 442 509 35,000  Level FlightAware
01:57PM 18.3010 -69.1300 94° East 441 507 35,000  Level FlightAware
01:58PM 18.2950 -69.0530 95° East 441 507 35,000  Level FlightAware
01:58PM 18.2900 -68.9860 94° East 440 506 35,000  Level FlightAware
01:59PM 18.2850 -68.9170 94° East 440 506 35,000  Level FlightAware
02:00PM 18.2790 -68.8280 94° East 440 506 35,000  Level FlightAware
02:00PM 18.2740 -68.7660 95° East 439 505 35,000  Level FlightAware
02:01PM 18.2690 -68.6910 94° East 439 505 35,000  Level FlightAware
02:01PM 18.2630 -68.6090 94° East 439 505 35,000  Level FlightAware
02:02PM 18.2520 -68.4680 95° East 438 504 35,000  Level FlightAware
02:03PM 18.2470 -68.4020 95° East 438 504 35,000  Level FlightAware
02:04PM 18.2400 -68.3090 95° East 436 502 35,000  Level FlightAware
02:04PM 18.2350 -68.2420 94° East 435 501 35,000  Level FlightAware
02:05PM 18.2290 -68.1560 94° East 434 499 35,000  Level FlightAware
02:05PM 18.2220 -68.0740 95° East 435 501 35,000  Level FlightAware
02:06PM 18.2040 -67.9480 99° East 439 505 35,000  Level FlightAware
02:07PM 18.1870 -67.8750 104° East 439 505 35,000 240 Level FlightAware
02:08PM 18.1680 -67.7980 105° East 443 510 35,300 600 Climbing FlightAware
02:09PM 18.1370 -67.6680 104° East 443 510 36,000 600 Climbing FlightAware
02:09PM 18.1200 -67.5930 103° East 445 512 36,300 540 Climbing FlightAware
02:10PM 18.1010 -67.5170 105° East 445 512 36,700 600 Climbing FlightAware
02:10PM 18.0840 -67.4460 104° East 446 513 37,000 240 Climbing FlightAware
02:11PM 18.0680 -67.3760 104° East 444 511 37,000  Level FlightAware
02:12PM 18.0560 -67.3290 105° East 444 511 37,000  Level FlightAware
02:12PM 18.0330 -67.2330 104° East 444 511 37,000  Level FlightAware
02:13PM 18.0050 -67.1620 113° Southeast 449 517 37,000  Level FlightAware
02:13PM 17.9700 -67.0980 120° Southeast 448 516 37,000  Level FlightAware
02:14PM 17.9330 -67.0280 119° Southeast 448 516 37,000  Level FlightAware
02:15PM 17.8940 -66.9480 117° Southeast 447 514 37,000  Level FlightAware
02:15PM 17.8480 -66.8560 118° Southeast 448 516 37,000  Level FlightAware
02:16PM 17.7930 -66.7420 117° Southeast 452 520 37,000  Level FlightAware
02:17PM 17.7530 -66.6590 117° Southeast 454 522 37,000  Level FlightAware
02:18PM 17.7210 -66.5920 117° Southeast 453 521 37,000  Level FlightAware
02:18PM 17.6860 -66.5180 116° Southeast 451 519 37,000  Level FlightAware
02:19PM 17.6570 -66.4550 116° Southeast 450 518 37,000  Level FlightAware
02:19PM 17.6280 -66.3940 117° Southeast 451 519 37,000  Level FlightAware
02:20PM 17.5970 -66.3230 115° Southeast 451 519 37,000  Level FlightAware
02:21PM 17.5660 -66.2480 113° Southeast 451 519 37,000  Level FlightAware
02:21PM 17.5420 -66.1850 112° Southeast 451 519 37,000  Level FlightAware
02:22PM 17.5220 -66.1280 110° East 451 519 37,000  Level FlightAware
02:22PM 17.4980 -66.0600 110° East 454 522 37,000  Level FlightAware
02:23PM 17.4750 -65.9960 111° Southeast 455 524 37,000  Level FlightAware
02:23PM 17.4500 -65.9090 107° East 458 527 37,000  Level FlightAware
02:24PM 17.4370 -65.8280 100° East 460 529 37,000  Level FlightAware
02:24PM 17.4260 -65.7570 99° East 462 532 37,000  Level FlightAware
02:25PM 17.4060 -65.6390 100° East 464 534 37,000  Level FlightAware
02:26PM 17.3940 -65.5670 100° East 465 535 37,000  Level FlightAware
02:26PM 17.3850 -65.5070 99° East 466 536 37,000  Level FlightAware
02:27PM 17.3700 -65.4210 100° East 466 536 37,000  Level FlightAware
02:28PM 17.3550 -65.3290 100° East 466 536 37,000  Level FlightAware
02:28PM 17.3420 -65.2490 100° East 467 537 37,000  Level FlightAware
02:29PM 17.3270 -65.1330 98° East 468 539 37,000  Level FlightAware
02:30PM 17.3210 -65.0590 95° East 468 539 37,000  Level FlightAware
02:30PM 17.3130 -64.9630 95° East 469 540 37,000  Level FlightAware
02:31PM 17.3030 -64.8720 97° East 467 537 37,000  Level FlightAware
02:32PM 17.2880 -64.7470 97° East 466 536 37,000  Level FlightAware
02:33PM 17.2780 -64.6710 98° East 466 536 37,000  Level FlightAware
02:33PM 17.2660 -64.6020 100° East 465 535 37,000  Level FlightAware
02:34PM 17.2500 -64.5110 100° East 465 535 37,000  Level FlightAware
02:34PM 17.2420 -64.4630 100° East 464 534 37,000  Level FlightAware
02:35PM 17.2150 -64.3120 101° East 464 534 37,000  Level FlightAware
02:36PM 17.2060 -64.2650 101° East 464 534 37,000  Level FlightAware
02:36PM 17.1930 -64.1980 101° East 464 534 37,000  Level FlightAware
02:37PM 17.1720 -64.0850 101° East 464 534 37,000  Level FlightAware
02:38PM 17.1600 -64.0180 101° East 464 534 37,000  Level FlightAware
02:39PM 17.1470 -63.9500 101° East 464 534 37,000  Level FlightAware
02:39PM 17.1350 -63.8830 101° East 464 534 37,000  Level FlightAware
02:40PM 17.1260 -63.8360 101° East 464 534 37,000  Level FlightAware
02:40PM 17.1140 -63.7680 100° East 464 534 37,000  Level FlightAware
02:41PM 17.1050 -63.7230 102° East 464 534 37,000  Level FlightAware
02:42PM 17.0840 -63.6090 101° East 464 534 37,000  Level FlightAware
02:42PM 17.0710 -63.5420 101° East 464 534 37,000  Level FlightAware
02:43PM 17.0590 -63.4740 100° East 464 534 37,000  Level FlightAware
02:43PM 17.0460 -63.4070 101° East 464 534 37,000  Level FlightAware
02:44PM 17.0340 -63.3390 100° East 464 534 37,000  Level FlightAware
02:45PM 17.0210 -63.2720 101° East 464 534 37,000  Level FlightAware
02:45PM 17.0090 -63.2040 100° East 464 534 37,000 -8,580 Level FlightAware
02:46PM 16.9333 -62.9500 100° East 480 552 27,600 -18,840 Descending San Juan Center
02:48PM 16.8479 -62.7747 117° Southeast  Level FlightAware Approximate
02:55PM 16.5368 -62.1139 105° East  Level FlightAware Approximate
02:56PM 16.4931 -62.0195 118° Southeast  Level FlightAware Approximate
02:57PM 16.4465 -61.9262 118° Southeast  Level FlightAware Approximate
02:58PM 16.4029 -61.8315 115° Southeast  Level FlightAware Approximate
02:59PM 16.3610 -61.7359 113° Southeast  Level FlightAware Approximate
03:00PM 16.3222 -61.6389 113° Southeast  Level FlightAware Approximate
03:01PM 16.2801 -61.5435 118° Southeast  Level FlightAware Approximate
03:02PM 16.2653 -61.5318 118° Southeast  Level Estimated
03:03PM 16.2653 -61.5318 118° Southeast  Level Estimated
03:04PM 16.2653 -61.5318 118° Southeast  Level Estimated
03:05PM 16.2653 -61.5318 118° Southeast  Level Estimated
03:06PM 16.2653 -61.5318 118° Southeast  Level Estimated
03:07PM 16.2653 -61.5318 118° Southeast  Level Estimated
03:08PM 16.2653 -61.5318 118° Southeast  Level Estimated
03:09PM 16.2653 -61.5318 118° Southeast  Level Estimated
03:10PM 16.2653 -61.5318 118° Southeast  Level Estimated
03:11PM 16.2653 -61.5318 118° Southeast  Level Estimated